sensor_id;sensor_type;location;lat;lon;timestamp;temperature;humidity
71128;SHT30;59249;59.736;30.568;2023-02-28T00:01:36;1.47;88.70
71128;SHT30;59249;59.736;30.568;2023-02-28T00:04:05;1.46;88.59
71128;SHT30;59249;59.736;30.568;2023-02-28T00:06:36;1.46;88.55
71128;SHT30;59249;59.736;30.568;2023-02-28T00:09:05;1.53;88.59
71128;SHT30;59249;59.736;30.568;2023-02-28T00:11:33;1.51;88.56
71128;SHT30;59249;59.736;30.568;2023-02-28T00:14:04;1.57;88.71
71128;SHT30;59249;59.736;30.568;2023-02-28T00:16:32;1.62;88.61
71128;SHT30;59249;59.736;30.568;2023-02-28T00:19:01;1.71;88.63
71128;SHT30;59249;59.736;30.568;2023-02-28T00:21:30;1.62;88.59
71128;SHT30;59249;59.736;30.568;2023-02-28T00:23:59;1.72;88.58
71128;SHT30;59249;59.736;30.568;2023-02-28T00:26:28;1.67;88.67
71128;SHT30;59249;59.736;30.568;2023-02-28T00:28:56;1.79;88.51
71128;SHT30;59249;59.736;30.568;2023-02-28T00:31:26;1.98;88.41
71128;SHT30;59249;59.736;30.568;2023-02-28T00:33:55;1.93;88.27
71128;SHT30;59249;59.736;30.568;2023-02-28T00:36:25;1.88;88.29
71128;SHT30;59249;59.736;30.568;2023-02-28T00:38:54;2.04;88.19
71128;SHT30;59249;59.736;30.568;2023-02-28T00:41:22;1.88;88.25
71128;SHT30;59249;59.736;30.568;2023-02-28T00:43:51;2.15;88.13
71128;SHT30;59249;59.736;30.568;2023-02-28T00:46:20;2.00;88.05
71128;SHT30;59249;59.736;30.568;2023-02-28T00:48:51;2.13;88.07
71128;SHT30;59249;59.736;30.568;2023-02-28T00:51:20;2.09;87.98
71128;SHT30;59249;59.736;30.568;2023-02-28T00:53:49;2.18;87.89
71128;SHT30;59249;59.736;30.568;2023-02-28T00:56:17;2.21;87.88
71128;SHT30;59249;59.736;30.568;2023-02-28T00:58:47;2.26;87.79
71128;SHT30;59249;59.736;30.568;2023-02-28T01:01:15;2.35;87.77
71128;SHT30;59249;59.736;30.568;2023-02-28T01:03:44;2.40;87.76
71128;SHT30;59249;59.736;30.568;2023-02-28T01:06:15;2.37;87.79
71128;SHT30;59249;59.736;30.568;2023-02-28T01:08:43;2.47;87.71
71128;SHT30;59249;59.736;30.568;2023-02-28T01:11:16;2.51;87.68
71128;SHT30;59249;59.736;30.568;2023-02-28T01:13:46;2.54;87.53
71128;SHT30;59249;59.736;30.568;2023-02-28T01:16:15;2.62;87.54
71128;SHT30;59249;59.736;30.568;2023-02-28T01:18:45;2.63;87.19
71128;SHT30;59249;59.736;30.568;2023-02-28T01:21:18;2.61;87.55
71128;SHT30;59249;59.736;30.568;2023-02-28T01:23:48;2.75;86.94
71128;SHT30;59249;59.736;30.568;2023-02-28T01:26:19;2.90;86.94
71128;SHT30;59249;59.736;30.568;2023-02-28T01:28:49;2.86;86.59
71128;SHT30;59249;59.736;30.568;2023-02-28T01:31:21;3.09;86.44
71128;SHT30;59249;59.736;30.568;2023-02-28T01:33:50;3.02;86.36
71128;SHT30;59249;59.736;30.568;2023-02-28T01:36:23;3.11;86.24
71128;SHT30;59249;59.736;30.568;2023-02-28T01:38:52;3.04;86.31
71128;SHT30;59249;59.736;30.568;2023-02-28T01:41:24;3.07;86.15
71128;SHT30;59249;59.736;30.568;2023-02-28T01:44:02;3.13;86.01
71128;SHT30;59249;59.736;30.568;2023-02-28T01:46:34;3.16;85.85
71128;SHT30;59249;59.736;30.568;2023-02-28T01:49:09;3.16;85.87
71128;SHT30;59249;59.736;30.568;2023-02-28T01:51:44;3.23;85.68
71128;SHT30;59249;59.736;30.568;2023-02-28T01:54:22;3.27;85.69
71128;SHT30;59249;59.736;30.568;2023-02-28T01:56:57;3.15;85.73
71128;SHT30;59249;59.736;30.568;2023-02-28T01:59:31;3.18;85.78
71128;SHT30;59249;59.736;30.568;2023-02-28T02:02:02;3.26;85.55
71128;SHT30;59249;59.736;30.568;2023-02-28T02:04:40;3.18;85.47
71128;SHT30;59249;59.736;30.568;2023-02-28T02:07:14;3.20;85.51
71128;SHT30;59249;59.736;30.568;2023-02-28T02:09:44;3.26;85.47
71128;SHT30;59249;59.736;30.568;2023-02-28T02:12:25;3.32;85.42
71128;SHT30;59249;59.736;30.568;2023-02-28T02:15:11;3.39;85.25
71128;SHT30;59249;59.736;30.568;2023-02-28T02:17:47;3.38;85.23
71128;SHT30;59249;59.736;30.568;2023-02-28T02:24:16;3.46;84.92
71128;SHT30;59249;59.736;30.568;2023-02-28T02:27:38;3.47;84.80
71128;SHT30;59249;59.736;30.568;2023-02-28T02:30:44;3.55;84.59
71128;SHT30;59249;59.736;30.568;2023-02-28T02:36:35;3.62;84.49
71128;SHT30;59249;59.736;30.568;2023-02-28T02:39:13;3.67;84.26
71128;SHT30;59249;59.736;30.568;2023-02-28T02:41:51;3.63;84.15
71128;SHT30;59249;59.736;30.568;2023-02-28T02:44:25;3.66;84.18
71128;SHT30;59249;59.736;30.568;2023-02-28T02:47:03;3.70;84.09
71128;SHT30;59249;59.736;30.568;2023-02-28T02:49:38;3.60;84.16
71128;SHT30;59249;59.736;30.568;2023-02-28T02:52:15;3.70;84.17
71128;SHT30;59249;59.736;30.568;2023-02-28T02:54:50;3.63;84.07
71128;SHT30;59249;59.736;30.568;2023-02-28T02:57:27;3.70;84.04
71128;SHT30;59249;59.736;30.568;2023-02-28T03:00:00;3.56;84.09
71128;SHT30;59249;59.736;30.568;2023-02-28T03:02:33;3.74;84.00
71128;SHT30;59249;59.736;30.568;2023-02-28T03:05:08;3.63;83.99
71128;SHT30;59249;59.736;30.568;2023-02-28T03:07:43;3.59;83.88
71128;SHT30;59249;59.736;30.568;2023-02-28T03:10:32;3.64;83.89
71128;SHT30;59249;59.736;30.568;2023-02-28T03:13:18;3.64;83.66
71128;SHT30;59249;59.736;30.568;2023-02-28T03:16:10;3.67;83.63
71128;SHT30;59249;59.736;30.568;2023-02-28T03:18:57;3.60;83.77
71128;SHT30;59249;59.736;30.568;2023-02-28T03:21:35;3.60;83.83
71128;SHT30;59249;59.736;30.568;2023-02-28T03:24:13;3.71;83.89
71128;SHT30;59249;59.736;30.568;2023-02-28T03:26:53;3.65;83.91
71128;SHT30;59249;59.736;30.568;2023-02-28T03:29:34;3.75;83.83
71128;SHT30;59249;59.736;30.568;2023-02-28T03:32:11;3.60;83.76
71128;SHT30;59249;59.736;30.568;2023-02-28T03:34:48;3.64;83.80
71128;SHT30;59249;59.736;30.568;2023-02-28T03:37:22;3.69;83.76
71128;SHT30;59249;59.736;30.568;2023-02-28T03:40:00;3.70;83.71
71128;SHT30;59249;59.736;30.568;2023-02-28T03:42:34;3.67;83.77
71128;SHT30;59249;59.736;30.568;2023-02-28T03:45:11;3.57;83.76
71128;SHT30;59249;59.736;30.568;2023-02-28T03:47:45;3.65;83.77
71128;SHT30;59249;59.736;30.568;2023-02-28T03:50:18;3.62;83.77
71128;SHT30;59249;59.736;30.568;2023-02-28T03:52:54;3.58;83.73
71128;SHT30;59249;59.736;30.568;2023-02-28T03:55:38;3.55;83.83
71128;SHT30;59249;59.736;30.568;2023-02-28T03:58:17;3.58;83.68
71128;SHT30;59249;59.736;30.568;2023-02-28T04:00:56;3.42;83.79
71128;SHT30;59249;59.736;30.568;2023-02-28T04:03:27;3.60;83.84
71128;SHT30;59249;59.736;30.568;2023-02-28T04:05:58;3.47;83.90
71128;SHT30;59249;59.736;30.568;2023-02-28T04:08:27;3.47;83.85
71128;SHT30;59249;59.736;30.568;2023-02-28T04:11:03;3.48;83.90
71128;SHT30;59249;59.736;30.568;2023-02-28T04:13:33;3.53;83.78
71128;SHT30;59249;59.736;30.568;2023-02-28T04:16:02;3.51;83.93
71128;SHT30;59249;59.736;30.568;2023-02-28T04:18:47;3.40;83.98
71128;SHT30;59249;59.736;30.568;2023-02-28T04:21:16;3.43;83.94
71128;SHT30;59249;59.736;30.568;2023-02-28T04:23:47;3.53;83.99
71128;SHT30;59249;59.736;30.568;2023-02-28T04:26:17;3.48;83.81
71128;SHT30;59249;59.736;30.568;2023-02-28T04:28:46;3.48;83.90
71128;SHT30;59249;59.736;30.568;2023-02-28T04:31:15;3.35;83.94
71128;SHT30;59249;59.736;30.568;2023-02-28T04:33:44;3.41;84.09
71128;SHT30;59249;59.736;30.568;2023-02-28T04:36:13;3.53;84.20
71128;SHT30;59249;59.736;30.568;2023-02-28T04:38:46;3.43;84.11
71128;SHT30;59249;59.736;30.568;2023-02-28T04:41:16;3.39;84.08
71128;SHT30;59249;59.736;30.568;2023-02-28T04:43:45;3.38;84.20
71128;SHT30;59249;59.736;30.568;2023-02-28T04:46:14;3.42;84.23
71128;SHT30;59249;59.736;30.568;2023-02-28T04:48:43;3.41;84.08
71128;SHT30;59249;59.736;30.568;2023-02-28T04:51:14;3.32;84.11
71128;SHT30;59249;59.736;30.568;2023-02-28T04:53:43;3.37;84.05
71128;SHT30;59249;59.736;30.568;2023-02-28T04:56:15;3.30;84.12
71128;SHT30;59249;59.736;30.568;2023-02-28T04:58:46;3.42;84.29
71128;SHT30;59249;59.736;30.568;2023-02-28T05:01:20;3.37;84.18
71128;SHT30;59249;59.736;30.568;2023-02-28T05:03:51;3.42;84.26
71128;SHT30;59249;59.736;30.568;2023-02-28T05:06:22;3.47;84.16
71128;SHT30;59249;59.736;30.568;2023-02-28T05:08:52;3.30;84.20
71128;SHT30;59249;59.736;30.568;2023-02-28T05:11:24;3.46;84.24
71128;SHT30;59249;59.736;30.568;2023-02-28T05:13:55;3.40;84.10
71128;SHT30;59249;59.736;30.568;2023-02-28T05:16:24;3.39;84.15
71128;SHT30;59249;59.736;30.568;2023-02-28T05:18:53;3.45;84.11
71128;SHT30;59249;59.736;30.568;2023-02-28T05:21:27;3.42;84.05
71128;SHT30;59249;59.736;30.568;2023-02-28T05:24:00;3.42;83.95
71128;SHT30;59249;59.736;30.568;2023-02-28T05:26:30;3.35;83.98
71128;SHT30;59249;59.736;30.568;2023-02-28T05:29:00;3.38;83.97
71128;SHT30;59249;59.736;30.568;2023-02-28T05:31:29;3.52;83.91
71128;SHT30;59249;59.736;30.568;2023-02-28T05:33:58;3.55;83.88
71128;SHT30;59249;59.736;30.568;2023-02-28T05:36:27;3.56;83.72
71128;SHT30;59249;59.736;30.568;2023-02-28T05:38:56;3.40;83.77
71128;SHT30;59249;59.736;30.568;2023-02-28T05:41:25;3.48;83.83
71128;SHT30;59249;59.736;30.568;2023-02-28T05:43:55;3.49;83.63
71128;SHT30;59249;59.736;30.568;2023-02-28T05:46:25;3.55;83.60
71128;SHT30;59249;59.736;30.568;2023-02-28T05:48:53;3.52;83.75
71128;SHT30;59249;59.736;30.568;2023-02-28T05:51:23;3.56;83.58
71128;SHT30;59249;59.736;30.568;2023-02-28T05:53:52;3.58;83.43
71128;SHT30;59249;59.736;30.568;2023-02-28T05:56:20;3.51;83.48
71128;SHT30;59249;59.736;30.568;2023-02-28T05:58:49;3.43;83.48
71128;SHT30;59249;59.736;30.568;2023-02-28T06:01:32;3.58;83.28
71128;SHT30;59249;59.736;30.568;2023-02-28T06:04:02;3.59;83.36
71128;SHT30;59249;59.736;30.568;2023-02-28T06:06:32;3.55;83.38
71128;SHT30;59249;59.736;30.568;2023-02-28T06:09:04;3.69;83.55
71128;SHT30;59249;59.736;30.568;2023-02-28T06:11:33;3.50;83.68
71128;SHT30;59249;59.736;30.568;2023-02-28T06:14:02;3.41;83.93
71128;SHT30;59249;59.736;30.568;2023-02-28T06:16:34;3.42;84.05
71128;SHT30;59249;59.736;30.568;2023-02-28T06:19:04;3.53;84.26
71128;SHT30;59249;59.736;30.568;2023-02-28T06:21:33;3.22;84.88
71128;SHT30;59249;59.736;30.568;2023-02-28T06:24:02;2.97;84.71
71128;SHT30;59249;59.736;30.568;2023-02-28T06:26:31;3.00;84.41
71128;SHT30;59249;59.736;30.568;2023-02-28T06:29:00;2.32;85.30
71128;SHT30;59249;59.736;30.568;2023-02-28T06:31:30;2.06;84.41
71128;SHT30;59249;59.736;30.568;2023-02-28T06:34:01;1.71;83.28
71128;SHT30;59249;59.736;30.568;2023-02-28T06:36:30;1.78;84.17
71128;SHT30;59249;59.736;30.568;2023-02-28T06:38:58;1.76;83.67
71128;SHT30;59249;59.736;30.568;2023-02-28T06:41:27;1.79;82.38
71128;SHT30;59249;59.736;30.568;2023-02-28T06:44:13;1.79;81.70
71128;SHT30;59249;59.736;30.568;2023-02-28T06:46:44;2.11;81.79
71128;SHT30;59249;59.736;30.568;2023-02-28T06:49:16;2.07;83.42
71128;SHT30;59249;59.736;30.568;2023-02-28T06:51:45;2.25;84.31
71128;SHT30;59249;59.736;30.568;2023-02-28T06:54:13;2.13;84.80
71128;SHT30;59249;59.736;30.568;2023-02-28T06:56:42;2.34;85.18
71128;SHT30;59249;59.736;30.568;2023-02-28T06:59:11;2.42;85.20
71128;SHT30;59249;59.736;30.568;2023-02-28T07:01:39;2.50;85.52
71128;SHT30;59249;59.736;30.568;2023-02-28T07:04:09;2.34;85.88
71128;SHT30;59249;59.736;30.568;2023-02-28T07:06:39;2.44;85.80
71128;SHT30;59249;59.736;30.568;2023-02-28T07:09:08;2.39;85.61
71128;SHT30;59249;59.736;30.568;2023-02-28T07:11:38;2.41;85.60
71128;SHT30;59249;59.736;30.568;2023-02-28T07:14:07;2.40;85.21
71128;SHT30;59249;59.736;30.568;2023-02-28T07:16:35;2.48;85.26
71128;SHT30;59249;59.736;30.568;2023-02-28T07:19:04;2.40;84.09
71128;SHT30;59249;59.736;30.568;2023-02-28T07:21:33;2.47;83.37
71128;SHT30;59249;59.736;30.568;2023-02-28T07:24:03;2.44;81.04
71128;SHT30;59249;59.736;30.568;2023-02-28T07:26:32;2.34;79.42
71128;SHT30;59249;59.736;30.568;2023-02-28T07:29:02;2.42;76.05
71128;SHT30;59249;59.736;30.568;2023-02-28T07:31:31;2.43;76.25
71128;SHT30;59249;59.736;30.568;2023-02-28T07:33:59;2.27;71.71
71128;SHT30;59249;59.736;30.568;2023-02-28T07:36:29;2.30;71.67
71128;SHT30;59249;59.736;30.568;2023-02-28T07:38:58;2.31;71.54
71128;SHT30;59249;59.736;30.568;2023-02-28T07:41:28;2.23;71.77
71128;SHT30;59249;59.736;30.568;2023-02-28T07:44:00;2.18;70.64
71128;SHT30;59249;59.736;30.568;2023-02-28T07:46:30;2.15;69.23
71128;SHT30;59249;59.736;30.568;2023-02-28T07:49:03;2.22;67.96
71128;SHT30;59249;59.736;30.568;2023-02-28T07:51:32;2.15;66.51
71128;SHT30;59249;59.736;30.568;2023-02-28T07:54:01;2.15;67.25
71128;SHT30;59249;59.736;30.568;2023-02-28T07:56:31;2.23;66.84
71128;SHT30;59249;59.736;30.568;2023-02-28T07:59:00;2.11;65.99
71128;SHT30;59249;59.736;30.568;2023-02-28T08:01:30;2.16;67.21
71128;SHT30;59249;59.736;30.568;2023-02-28T08:03:59;2.39;67.15
71128;SHT30;59249;59.736;30.568;2023-02-28T08:06:28;2.39;67.38
71128;SHT30;59249;59.736;30.568;2023-02-28T08:08:56;2.34;65.90
71128;SHT30;59249;59.736;30.568;2023-02-28T08:11:25;2.27;64.59
71128;SHT30;59249;59.736;30.568;2023-02-28T08:13:56;2.21;64.93
71128;SHT30;59249;59.736;30.568;2023-02-28T08:16:24;2.42;64.75
71128;SHT30;59249;59.736;30.568;2023-02-28T08:18:53;2.41;64.25
71128;SHT30;59249;59.736;30.568;2023-02-28T08:21:22;2.47;64.96
71128;SHT30;59249;59.736;30.568;2023-02-28T08:23:51;2.41;63.45
71128;SHT30;59249;59.736;30.568;2023-02-28T08:26:20;2.41;64.40
71128;SHT30;59249;59.736;30.568;2023-02-28T08:28:49;2.40;63.23
71128;SHT30;59249;59.736;30.568;2023-02-28T08:31:19;2.39;62.60
71128;SHT30;59249;59.736;30.568;2023-02-28T08:33:48;2.30;62.22
71128;SHT30;59249;59.736;30.568;2023-02-28T08:36:20;2.37;61.92
71128;SHT30;59249;59.736;30.568;2023-02-28T08:38:49;2.28;61.68
71128;SHT30;59249;59.736;30.568;2023-02-28T08:41:18;2.30;60.60
71128;SHT30;59249;59.736;30.568;2023-02-28T08:43:46;2.33;59.35
71128;SHT30;59249;59.736;30.568;2023-02-28T08:46:15;2.31;57.75
71128;SHT30;59249;59.736;30.568;2023-02-28T08:48:46;2.42;58.01
71128;SHT30;59249;59.736;30.568;2023-02-28T08:51:17;2.48;57.36
71128;SHT30;59249;59.736;30.568;2023-02-28T08:53:49;2.41;56.38
71128;SHT30;59249;59.736;30.568;2023-02-28T08:56:18;2.44;56.26
71128;SHT30;59249;59.736;30.568;2023-02-28T08:58:49;2.58;57.42
71128;SHT30;59249;59.736;30.568;2023-02-28T09:01:21;2.58;57.34
71128;SHT30;59249;59.736;30.568;2023-02-28T09:03:51;2.81;56.39
71128;SHT30;59249;59.736;30.568;2023-02-28T09:06:23;2.79;56.26
71128;SHT30;59249;59.736;30.568;2023-02-28T09:08:52;2.59;55.33
71128;SHT30;59249;59.736;30.568;2023-02-28T09:11:22;2.56;55.06
71128;SHT30;59249;59.736;30.568;2023-02-28T09:13:51;2.44;55.17
71128;SHT30;59249;59.736;30.568;2023-02-28T09:16:19;2.55;56.49
71128;SHT30;59249;59.736;30.568;2023-02-28T09:18:48;2.46;57.64
71128;SHT30;59249;59.736;30.568;2023-02-28T09:21:19;2.39;57.53
71128;SHT30;59249;59.736;30.568;2023-02-28T09:23:49;2.29;57.70
71128;SHT30;59249;59.736;30.568;2023-02-28T09:26:21;2.30;58.09
71128;SHT30;59249;59.736;30.568;2023-02-28T09:28:53;2.24;58.16
71128;SHT30;59249;59.736;30.568;2023-02-28T09:31:25;2.25;57.94
71128;SHT30;59249;59.736;30.568;2023-02-28T09:33:57;2.13;57.23
71128;SHT30;59249;59.736;30.568;2023-02-28T09:36:28;2.13;57.70
71128;SHT30;59249;59.736;30.568;2023-02-28T09:39:10;2.14;57.85
71128;SHT30;59249;59.736;30.568;2023-02-28T09:41:43;2.33;58.35
71128;SHT30;59249;59.736;30.568;2023-02-28T09:44:26;2.36;58.20
71128;SHT30;59249;59.736;30.568;2023-02-28T09:47:00;2.21;56.93
71128;SHT30;59249;59.736;30.568;2023-02-28T09:49:38;2.42;58.37
71128;SHT30;59249;59.736;30.568;2023-02-28T09:52:16;2.14;57.16
71128;SHT30;59249;59.736;30.568;2023-02-28T09:54:46;2.32;57.24
71128;SHT30;59249;59.736;30.568;2023-02-28T09:57:25;2.60;57.04
71128;SHT30;59249;59.736;30.568;2023-02-28T10:00:07;2.62;57.71
71128;SHT30;59249;59.736;30.568;2023-02-28T10:02:58;2.66;57.51
71128;SHT30;59249;59.736;30.568;2023-02-28T10:05:36;2.78;57.62
71128;SHT30;59249;59.736;30.568;2023-02-28T10:08:14;2.78;58.97
71128;SHT30;59249;59.736;30.568;2023-02-28T10:10:47;2.83;59.09
71128;SHT30;59249;59.736;30.568;2023-02-28T10:13:24;2.85;59.25
71128;SHT30;59249;59.736;30.568;2023-02-28T10:15:59;3.00;60.56
71128;SHT30;59249;59.736;30.568;2023-02-28T10:18:42;2.69;62.70
71128;SHT30;59249;59.736;30.568;2023-02-28T10:21:23;2.95;63.47
71128;SHT30;59249;59.736;30.568;2023-02-28T10:24:04;2.87;63.82
71128;SHT30;59249;59.736;30.568;2023-02-28T10:26:33;2.85;63.65
71128;SHT30;59249;59.736;30.568;2023-02-28T10:29:02;2.83;63.12
71128;SHT30;59249;59.736;30.568;2023-02-28T10:31:31;2.83;61.16
71128;SHT30;59249;59.736;30.568;2023-02-28T10:34:00;2.94;61.59
71128;SHT30;59249;59.736;30.568;2023-02-28T10:36:30;2.83;61.54
71128;SHT30;59249;59.736;30.568;2023-02-28T10:39:40;2.94;61.36
71128;SHT30;59249;59.736;30.568;2023-02-28T10:42:26;2.60;60.87
71128;SHT30;59249;59.736;30.568;2023-02-28T10:45:11;2.75;61.23
71128;SHT30;59249;59.736;30.568;2023-02-28T10:47:52;2.97;61.23
71128;SHT30;59249;59.736;30.568;2023-02-28T10:50:35;3.00;59.54
71128;SHT30;59249;59.736;30.568;2023-02-28T10:53:25;3.13;57.70
71128;SHT30;59249;59.736;30.568;2023-02-28T10:56:01;2.99;56.03
71128;SHT30;59249;59.736;30.568;2023-02-28T10:58:40;2.90;51.15
71128;SHT30;59249;59.736;30.568;2023-02-28T11:01:14;3.11;51.10
71128;SHT30;59249;59.736;30.568;2023-02-28T11:03:44;3.02;51.32
71128;SHT30;59249;59.736;30.568;2023-02-28T11:06:18;3.14;51.42
71128;SHT30;59249;59.736;30.568;2023-02-28T11:08:51;3.26;51.12
71128;SHT30;59249;59.736;30.568;2023-02-28T11:11:26;3.36;51.07
71128;SHT30;59249;59.736;30.568;2023-02-28T11:14:04;3.42;51.03
71128;SHT30;59249;59.736;30.568;2023-02-28T11:16:36;3.38;50.50
71128;SHT30;59249;59.736;30.568;2023-02-28T11:19:18;3.20;49.25
71128;SHT30;59249;59.736;30.568;2023-02-28T11:21:54;3.18;49.03
71128;SHT30;59249;59.736;30.568;2023-02-28T11:24:27;3.16;48.21
71128;SHT30;59249;59.736;30.568;2023-02-28T11:26:58;3.27;48.19
71128;SHT30;59249;59.736;30.568;2023-02-28T11:29:30;3.06;47.85
71128;SHT30;59249;59.736;30.568;2023-02-28T11:32:16;2.87;45.61
71128;SHT30;59249;59.736;30.568;2023-02-28T11:35:01;2.93;46.09
71128;SHT30;59249;59.736;30.568;2023-02-28T11:37:33;3.17;46.58
71128;SHT30;59249;59.736;30.568;2023-02-28T11:40:04;3.23;44.98
71128;SHT30;59249;59.736;30.568;2023-02-28T11:42:56;3.03;43.96
71128;SHT30;59249;59.736;30.568;2023-02-28T11:46:00;2.68;44.15
71128;SHT30;59249;59.736;30.568;2023-02-28T11:48:45;2.61;44.66
71128;SHT30;59249;59.736;30.568;2023-02-28T11:51:21;2.54;43.35
71128;SHT30;59249;59.736;30.568;2023-02-28T11:57:29;2.39;44.30
71128;SHT30;59249;59.736;30.568;2023-02-28T12:00:19;2.54;43.73
71128;SHT30;59249;59.736;30.568;2023-02-28T12:03:07;2.55;43.17
71128;SHT30;59249;59.736;30.568;2023-02-28T12:05:44;2.39;42.19
71128;SHT30;59249;59.736;30.568;2023-02-28T12:08:29;2.48;42.33
71128;SHT30;59249;59.736;30.568;2023-02-28T12:11:15;2.60;42.44
71128;SHT30;59249;59.736;30.568;2023-02-28T12:14:03;2.72;42.67
71128;SHT30;59249;59.736;30.568;2023-02-28T12:16:55;2.43;41.87
71128;SHT30;59249;59.736;30.568;2023-02-28T12:19:37;2.41;41.45
71128;SHT30;59249;59.736;30.568;2023-02-28T12:22:25;2.56;42.39
71128;SHT30;59249;59.736;30.568;2023-02-28T12:25:21;2.28;42.47
71128;SHT30;59249;59.736;30.568;2023-02-28T12:27:52;2.10;42.94
71128;SHT30;59249;59.736;30.568;2023-02-28T12:30:25;2.04;43.05
71128;SHT30;59249;59.736;30.568;2023-02-28T12:33:03;2.21;43.15
71128;SHT30;59249;59.736;30.568;2023-02-28T12:35:37;1.96;43.29
71128;SHT30;59249;59.736;30.568;2023-02-28T12:38:13;2.00;43.52
71128;SHT30;59249;59.736;30.568;2023-02-28T12:40:51;2.02;42.67
71128;SHT30;59249;59.736;30.568;2023-02-28T12:43:25;1.89;41.97
71128;SHT30;59249;59.736;30.568;2023-02-28T12:45:59;1.97;41.73
71128;SHT30;59249;59.736;30.568;2023-02-28T12:48:40;2.07;42.10
71128;SHT30;59249;59.736;30.568;2023-02-28T12:51:11;1.99;42.47
71128;SHT30;59249;59.736;30.568;2023-02-28T12:53:57;2.11;42.70
71128;SHT30;59249;59.736;30.568;2023-02-28T12:56:42;2.17;42.55
71128;SHT30;59249;59.736;30.568;2023-02-28T12:59:21;2.23;42.57
71128;SHT30;59249;59.736;30.568;2023-02-28T13:05:24;2.21;42.51
71128;SHT30;59249;59.736;30.568;2023-02-28T13:08:14;2.33;42.80
71128;SHT30;59249;59.736;30.568;2023-02-28T13:10:50;2.31;42.68
71128;SHT30;59249;59.736;30.568;2023-02-28T13:13:24;2.27;42.80
71128;SHT30;59249;59.736;30.568;2023-02-28T13:16:03;2.33;42.93
71128;SHT30;59249;59.736;30.568;2023-02-28T13:18:37;2.26;42.81
71128;SHT30;59249;59.736;30.568;2023-02-28T13:21:22;2.30;43.34
71128;SHT30;59249;59.736;30.568;2023-02-28T13:24:04;2.12;42.58
71128;SHT30;59249;59.736;30.568;2023-02-28T13:27:24;2.30;42.80
71128;SHT30;59249;59.736;30.568;2023-02-28T13:30:00;2.22;42.83
71128;SHT30;59249;59.736;30.568;2023-02-28T13:32:36;2.21;43.03
71128;SHT30;59249;59.736;30.568;2023-02-28T13:35:43;2.22;43.48
71128;SHT30;59249;59.736;30.568;2023-02-28T13:38:33;2.15;43.73
71128;SHT30;59249;59.736;30.568;2023-02-28T13:41:45;2.16;43.46
71128;SHT30;59249;59.736;30.568;2023-02-28T13:44:18;2.16;43.82
71128;SHT30;59249;59.736;30.568;2023-02-28T13:47:28;2.11;44.11
71128;SHT30;59249;59.736;30.568;2023-02-28T13:50:19;2.13;44.67
71128;SHT30;59249;59.736;30.568;2023-02-28T13:56:10;2.43;46.24
71128;SHT30;59249;59.736;30.568;2023-02-28T13:58:54;2.26;44.73
71128;SHT30;59249;59.736;30.568;2023-02-28T14:01:54;2.25;44.04
71128;SHT30;59249;59.736;30.568;2023-02-28T14:04:54;2.39;44.74
71128;SHT30;59249;59.736;30.568;2023-02-28T14:07:44;1.93;44.41
71128;SHT30;59249;59.736;30.568;2023-02-28T14:10:26;1.78;44.13
71128;SHT30;59249;59.736;30.568;2023-02-28T14:13:14;1.81;44.05
71128;SHT30;59249;59.736;30.568;2023-02-28T14:16:02;1.76;44.19
71128;SHT30;59249;59.736;30.568;2023-02-28T14:18:35;1.51;43.24
71128;SHT30;59249;59.736;30.568;2023-02-28T14:21:16;1.58;43.64
71128;SHT30;59249;59.736;30.568;2023-02-28T14:24:42;1.42;43.27
71128;SHT30;59249;59.736;30.568;2023-02-28T14:27:30;1.34;43.79
71128;SHT30;59249;59.736;30.568;2023-02-28T14:30:42;1.23;43.97
71128;SHT30;59249;59.736;30.568;2023-02-28T14:33:23;1.30;44.03
71128;SHT30;59249;59.736;30.568;2023-02-28T14:36:07;1.23;44.35
71128;SHT30;59249;59.736;30.568;2023-02-28T14:38:45;1.34;44.42
71128;SHT30;59249;59.736;30.568;2023-02-28T14:41:22;1.20;44.49
71128;SHT30;59249;59.736;30.568;2023-02-28T14:43:56;1.16;44.72
71128;SHT30;59249;59.736;30.568;2023-02-28T14:46:35;1.17;45.08
71128;SHT30;59249;59.736;30.568;2023-02-28T14:49:06;1.20;45.85
71128;SHT30;59249;59.736;30.568;2023-02-28T14:51:35;1.04;46.19
71128;SHT30;59249;59.736;30.568;2023-02-28T14:54:05;1.00;45.08
71128;SHT30;59249;59.736;30.568;2023-02-28T14:56:36;1.03;44.48
71128;SHT30;59249;59.736;30.568;2023-02-28T14:59:23;1.05;44.26
71128;SHT30;59249;59.736;30.568;2023-02-28T15:02:18;1.04;44.41
71128;SHT30;59249;59.736;30.568;2023-02-28T15:04:56;1.04;44.88
71128;SHT30;59249;59.736;30.568;2023-02-28T15:07:26;1.04;44.45
71128;SHT30;59249;59.736;30.568;2023-02-28T15:10:17;0.97;45.36
71128;SHT30;59249;59.736;30.568;2023-02-28T15:12:52;0.94;45.52
71128;SHT30;59249;59.736;30.568;2023-02-28T15:15:27;0.83;45.99
71128;SHT30;59249;59.736;30.568;2023-02-28T15:18:24;0.85;45.77
71128;SHT30;59249;59.736;30.568;2023-02-28T15:20:55;0.77;45.65
71128;SHT30;59249;59.736;30.568;2023-02-28T15:23:24;0.79;45.83
71128;SHT30;59249;59.736;30.568;2023-02-28T15:25:54;0.72;46.45
71128;SHT30;59249;59.736;30.568;2023-02-28T15:28:23;0.67;46.43
71128;SHT30;59249;59.736;30.568;2023-02-28T15:30:57;0.64;46.08
71128;SHT30;59249;59.736;30.568;2023-02-28T15:33:29;0.70;46.29
71128;SHT30;59249;59.736;30.568;2023-02-28T15:36:14;0.60;46.11
71128;SHT30;59249;59.736;30.568;2023-02-28T15:38:43;0.54;46.59
71128;SHT30;59249;59.736;30.568;2023-02-28T15:41:26;0.58;46.76
71128;SHT30;59249;59.736;30.568;2023-02-28T15:44:16;0.40;46.90
71128;SHT30;59249;59.736;30.568;2023-02-28T15:47:00;0.52;47.04
71128;SHT30;59249;59.736;30.568;2023-02-28T15:49:39;0.42;47.85
71128;SHT30;59249;59.736;30.568;2023-02-28T15:52:16;0.30;48.48
71128;SHT30;59249;59.736;30.568;2023-02-28T15:54:46;0.32;48.86
71128;SHT30;59249;59.736;30.568;2023-02-28T15:57:20;0.15;49.31
71128;SHT30;59249;59.736;30.568;2023-02-28T15:59:54;0.07;49.95
71128;SHT30;59249;59.736;30.568;2023-02-28T16:02:32;0.11;50.24
71128;SHT30;59249;59.736;30.568;2023-02-28T16:05:23;-0.01;51.04
71128;SHT30;59249;59.736;30.568;2023-02-28T16:08:11;-0.15;51.37
71128;SHT30;59249;59.736;30.568;2023-02-28T16:10:41;-0.22;51.38
71128;SHT30;59249;59.736;30.568;2023-02-28T16:13:12;-0.24;51.70
71128;SHT30;59249;59.736;30.568;2023-02-28T16:15:44;-0.10;52.22
71128;SHT30;59249;59.736;30.568;2023-02-28T16:18:13;-0.36;52.27
71128;SHT30;59249;59.736;30.568;2023-02-28T16:20:43;-0.35;52.49
71128;SHT30;59249;59.736;30.568;2023-02-28T16:23:12;-0.33;52.93
71128;SHT30;59249;59.736;30.568;2023-02-28T16:25:43;-0.36;53.23
71128;SHT30;59249;59.736;30.568;2023-02-28T16:28:24;-0.39;53.67
71128;SHT30;59249;59.736;30.568;2023-02-28T16:30:55;-0.40;53.71
71128;SHT30;59249;59.736;30.568;2023-02-28T16:33:25;-0.34;53.90
71128;SHT30;59249;59.736;30.568;2023-02-28T16:35:56;-0.35;54.09
71128;SHT30;59249;59.736;30.568;2023-02-28T16:38:25;-0.32;54.26